sensor_id;sensor_type;location;lat;lon;timestamp;pressure;altitude;pressure_sealevel;temperature;humidity
7966;BME280;4028;43.272;26.932;2023-05-01T00:00:03;99018.25;;;13.04;100.00
7966;BME280;4028;43.272;26.932;2023-05-01T00:02:29;99025.72;;;13.00;100.00
7966;BME280;4028;43.272;26.932;2023-05-01T00:04:55;99012.44;;;13.00;100.00
7966;BME280;4028;43.272;26.932;2023-05-01T00:07:21;99022.25;;;13.08;100.00
7966;BME280;4028;43.272;26.932;2023-05-01T00:09:47;99009.44;;;12.95;100.00
7966;BME280;4028;43.272;26.932;2023-05-01T00:12:12;99035.19;;;13.02;100.00
7966;BME280;4028;43.272;26.932;2023-05-01T00:14:38;99040.69;;;13.17;100.00
7966;BME280;4028;43.272;26.932;2023-05-01T00:17:03;99036.88;;;13.20;100.00
7966;BME280;4028;43.272;26.932;2023-05-01T00:19:29;99035.03;;;13.20;100.00
7966;BME280;4028;43.272;26.932;2023-05-01T00:21:54;99032.69;;;13.09;100.00
7966;BME280;4028;43.272;26.932;2023-05-01T00:24:19;99036.84;;;12.95;100.00
7966;BME280;4028;43.272;26.932;2023-05-01T00:26:45;99041.19;;;13.13;100.00
7966;BME280;4028;43.272;26.932;2023-05-01T00:29:11;99043.97;;;13.03;100.00
7966;BME280;4028;43.272;26.932;2023-05-01T00:31:37;99027.47;;;12.83;100.00
7966;BME280;4028;43.272;26.932;2023-05-01T00:34:02;99037.50;;;12.97;100.00
7966;BME280;4028;43.272;26.932;2023-05-01T00:36:29;99036.84;;;13.04;100.00
7966;BME280;4028;43.272;26.932;2023-05-01T00:38:56;99036.84;;;12.95;100.00
7966;BME280;4028;43.272;26.932;2023-05-01T00:41:21;99036.47;;;12.90;100.00
7966;BME280;4028;43.272;26.932;2023-05-01T00:43:47;99040.47;;;12.94;100.00
7966;BME280;4028;43.272;26.932;2023-05-01T00:46:12;99034.53;;;13.00;100.00
7966;BME280;4028;43.272;26.932;2023-05-01T00:48:38;99038.97;;;12.92;100.00
7966;BME280;4028;43.272;26.932;2023-05-01T00:51:04;99040.63;;;12.93;100.00
7966;BME280;4028;43.272;26.932;2023-05-01T00:53:34;99034.66;;;12.99;100.00
7966;BME280;4028;43.272;26.932;2023-05-01T00:56:00;99041.00;;;13.06;100.00
7966;BME280;4028;43.272;26.932;2023-05-01T00:58:26;99048.84;;;13.16;100.00
7966;BME280;4028;43.272;26.932;2023-05-01T01:00:52;99052.69;;;13.21;100.00
7966;BME280;4028;43.272;26.932;2023-05-01T01:03:18;99056.44;;;13.02;100.00
7966;BME280;4028;43.272;26.932;2023-05-01T01:05:53;99063.19;;;12.89;100.00
7966;BME280;4028;43.272;26.932;2023-05-01T01:08:29;99054.25;;;12.90;100.00
7966;BME280;4028;43.272;26.932;2023-05-01T01:11:18;99062.22;;;12.90;100.00
7966;BME280;4028;43.272;26.932;2023-05-01T01:16:33;99054.03;;;12.83;100.00
7966;BME280;4028;43.272;26.932;2023-05-01T01:21:42;99064.16;;;12.80;100.00
7966;BME280;4028;43.272;26.932;2023-05-01T01:24:35;99057.03;;;12.80;100.00
7966;BME280;4028;43.272;26.932;2023-05-01T01:33:21;99065.47;;;12.84;100.00
7966;BME280;4028;43.272;26.932;2023-05-01T01:35:56;99077.75;;;12.77;100.00
7966;BME280;4028;43.272;26.932;2023-05-01T01:38:36;99072.97;;;12.80;100.00
7966;BME280;4028;43.272;26.932;2023-05-01T01:41:17;99082.75;;;12.80;100.00
7966;BME280;4028;43.272;26.932;2023-05-01T01:43:48;99075.72;;;12.70;100.00
7966;BME280;4028;43.272;26.932;2023-05-01T01:46:17;99064.53;;;12.59;100.00
7966;BME280;4028;43.272;26.932;2023-05-01T01:48:48;99047.19;;;12.38;100.00
7966;BME280;4028;43.272;26.932;2023-05-01T01:51:17;99068.34;;;12.56;100.00
7966;BME280;4028;43.272;26.932;2023-05-01T01:53:49;99064.47;;;12.42;100.00
7966;BME280;4028;43.272;26.932;2023-05-01T01:56:17;99074.88;;;12.36;100.00
7966;BME280;4028;43.272;26.932;2023-05-01T01:58:45;99060.09;;;12.33;100.00
7966;BME280;4028;43.272;26.932;2023-05-01T02:01:42;99061.44;;;12.37;100.00
7966;BME280;4028;43.272;26.932;2023-05-01T02:04:10;99061.66;;;12.18;100.00
7966;BME280;4028;43.272;26.932;2023-05-01T02:06:38;99088.41;;;12.25;100.00
7966;BME280;4028;43.272;26.932;2023-05-01T02:09:05;99086.78;;;12.32;100.00
7966;BME280;4028;43.272;26.932;2023-05-01T02:11:34;99079.56;;;12.42;100.00
7966;BME280;4028;43.272;26.932;2023-05-01T02:14:01;99090.53;;;12.47;100.00
7966;BME280;4028;43.272;26.932;2023-05-01T02:16:28;99094.53;;;12.51;100.00
7966;BME280;4028;43.272;26.932;2023-05-01T02:18:54;99088.34;;;12.42;100.00
7966;BME280;4028;43.272;26.932;2023-05-01T02:21:21;99089.97;;;12.35;100.00
7966;BME280;4028;43.272;26.932;2023-05-01T02:23:47;99092.78;;;12.34;100.00
7966;BME280;4028;43.272;26.932;2023-05-01T02:26:15;99092.94;;;12.32;100.00
7966;BME280;4028;43.272;26.932;2023-05-01T02:28:41;99084.66;;;12.35;100.00
7966;BME280;4028;43.272;26.932;2023-05-01T02:31:08;99087.88;;;12.21;100.00
7966;BME280;4028;43.272;26.932;2023-05-01T02:33:33;99095.84;;;12.21;100.00
7966;BME280;4028;43.272;26.932;2023-05-01T02:35:59;99089.25;;;12.25;100.00
7966;BME280;4028;43.272;26.932;2023-05-01T02:38:24;99095.22;;;12.27;100.00
7966;BME280;4028;43.272;26.932;2023-05-01T02:40:52;99106.81;;;12.26;100.00
7966;BME280;4028;43.272;26.932;2023-05-01T02:43:21;99112.28;;;12.25;100.00
7966;BME280;4028;43.272;26.932;2023-05-01T02:45:48;99123.56;;;12.27;100.00
7966;BME280;4028;43.272;26.932;2023-05-01T02:48:18;99129.88;;;12.08;100.00
7966;BME280;4028;43.272;26.932;2023-05-01T02:50:46;99129.88;;;12.08;100.00
7966;BME280;4028;43.272;26.932;2023-05-01T02:53:14;99113.56;;;11.94;100.00
7966;BME280;4028;43.272;26.932;2023-05-01T02:55:41;99127.84;;;12.02;100.00
7966;BME280;4028;43.272;26.932;2023-05-01T02:58:17;99140.72;;;11.96;100.00
7966;BME280;4028;43.272;26.932;2023-05-01T03:00:43;99134.22;;;11.91;100.00
7966;BME280;4028;43.272;26.932;2023-05-01T03:03:10;99141.44;;;11.99;100.00
7966;BME280;4028;43.272;26.932;2023-05-01T03:05:36;99140.06;;;11.94;100.00
7966;BME280;4028;43.272;26.932;2023-05-01T03:08:02;99130.25;;;11.77;100.00
7966;BME280;4028;43.272;26.932;2023-05-01T03:10:28;99134.88;;;11.75;100.00
7966;BME280;4028;43.272;26.932;2023-05-01T03:12:54;99135.41;;;11.79;100.00
7966;BME280;4028;43.272;26.932;2023-05-01T03:15:19;99145.00;;;11.89;100.00
7966;BME280;4028;43.272;26.932;2023-05-01T03:17:45;99148.75;;;11.87;100.00
7966;BME280;4028;43.272;26.932;2023-05-01T03:20:10;99158.03;;;11.83;100.00
7966;BME280;4028;43.272;26.932;2023-05-01T03:22:36;99145.00;;;11.89;100.00
7966;BME280;4028;43.272;26.932;2023-05-01T03:25:02;99154.78;;;11.89;100.00
7966;BME280;4028;43.272;26.932;2023-05-01T03:27:29;99150.06;;;12.01;100.00
7966;BME280;4028;43.272;26.932;2023-05-01T03:29:55;99147.78;;;12.06;100.00
7966;BME280;4028;43.272;26.932;2023-05-01T03:32:20;99156.94;;;12.11;100.00
7966;BME280;4028;43.272;26.932;2023-05-01T03:34:46;99159.13;;;12.16;100.00
7966;BME280;4028;43.272;26.932;2023-05-01T03:37:12;99118.59;;;12.06;100.00
7966;BME280;4028;43.272;26.932;2023-05-01T03:39:38;99160.63;;;12.36;100.00
7966;BME280;4028;43.272;26.932;2023-05-01T03:42:03;99164.06;;;12.55;100.00
7966;BME280;4028;43.272;26.932;2023-05-01T03:44:29;99162.34;;;12.71;100.00
7966;BME280;4028;43.272;26.932;2023-05-01T03:46:55;99169.03;;;12.84;100.00
7966;BME280;4028;43.272;26.932;2023-05-01T03:49:20;99174.66;;;13.07;100.00
7966;BME280;4028;43.272;26.932;2023-05-01T03:51:46;99153.50;;;13.23;100.00
7966;BME280;4028;43.272;26.932;2023-05-01T03:54:12;99175.81;;;13.38;100.00
7966;BME280;4028;43.272;26.932;2023-05-01T03:56:38;99184.09;;;13.35;100.00
7966;BME280;4028;43.272;26.932;2023-05-01T03:59:03;99182.75;;;13.31;100.00
7966;BME280;4028;43.272;26.932;2023-05-01T04:01:29;99188.09;;;13.39;100.00
7966;BME280;4028;43.272;26.932;2023-05-01T04:03:54;99198.72;;;13.39;100.00
7966;BME280;4028;43.272;26.932;2023-05-01T04:06:20;99205.03;;;13.38;100.00
7966;BME280;4028;43.272;26.932;2023-05-01T04:08:46;99207.69;;;13.38;100.00
7966;BME280;4028;43.272;26.932;2023-05-01T04:11:12;99208.16;;;13.34;100.00
7966;BME280;4028;43.272;26.932;2023-05-01T04:13:37;99209.84;;;13.35;100.00
7966;BME280;4028;43.272;26.932;2023-05-01T04:16:03;99215.88;;;13.19;100.00
7966;BME280;4028;43.272;26.932;2023-05-01T04:18:28;99220.84;;;13.14;100.00
7966;BME280;4028;43.272;26.932;2023-05-01T04:20:54;99217.50;;;13.38;100.00
7966;BME280;4028;43.272;26.932;2023-05-01T04:23:19;99203.94;;;13.57;100.00
7966;BME280;4028;43.272;26.932;2023-05-01T04:25:45;99208.88;;;14.11;100.00
7966;BME280;4028;43.272;26.932;2023-05-01T04:28:11;99223.88;;;14.61;100.00
7966;BME280;4028;43.272;26.932;2023-05-01T04:30:37;99211.84;;;14.89;100.00
7966;BME280;4028;43.272;26.932;2023-05-01T04:33:02;99199.78;;;15.26;100.00
7966;BME280;4028;43.272;26.932;2023-05-01T04:35:38;99218.63;;;15.55;100.00
7966;BME280;4028;43.272;26.932;2023-05-01T04:38:07;99210.38;;;15.34;100.00
7966;BME280;4028;43.272;26.932;2023-05-01T04:40:32;99227.28;;;15.18;100.00
7966;BME280;4028;43.272;26.932;2023-05-01T04:42:58;99231.13;;;15.07;100.00
7966;BME280;4028;43.272;26.932;2023-05-01T04:45:24;99231.13;;;15.07;100.00
7966;BME280;4028;43.272;26.932;2023-05-01T04:47:50;99226.44;;;15.09;100.00
7966;BME280;4028;43.272;26.932;2023-05-01T04:50:15;99236.66;;;14.98;100.00
7966;BME280;4028;43.272;26.932;2023-05-01T04:52:41;99237.03;;;14.70;100.00
7966;BME280;4028;43.272;26.932;2023-05-01T04:55:07;99236.03;;;14.55;100.00
7966;BME280;4028;43.272;26.932;2023-05-01T04:57:33;99242.19;;;14.47;100.00
7966;BME280;4028;43.272;26.932;2023-05-01T04:59:59;99249.66;;;14.36;100.00
7966;BME280;4028;43.272;26.932;2023-05-01T05:02:24;99245.13;;;14.12;100.00
7966;BME280;4028;43.272;26.932;2023-05-01T05:04:50;99247.94;;;14.10;100.00
7966;BME280;4028;43.272;26.932;2023-05-01T05:07:18;99254.97;;;14.19;100.00
7966;BME280;4028;43.272;26.932;2023-05-01T05:09:44;99260.75;;;14.07;100.00
7966;BME280;4028;43.272;26.932;2023-05-01T05:12:09;99267.22;;;14.12;100.00
7966;BME280;4028;43.272;26.932;2023-05-01T05:14:35;99266.09;;;14.15;100.00
7966;BME280;4028;43.272;26.932;2023-05-01T05:17:00;99261.63;;;14.31;100.00
7966;BME280;4028;43.272;26.932;2023-05-01T05:19:26;99269.50;;;14.49;100.00
7966;BME280;4028;43.272;26.932;2023-05-01T05:21:51;99265.00;;;14.66;100.00
7966;BME280;4028;43.272;26.932;2023-05-01T05:24:17;99267.97;;;14.88;100.00
7966;BME280;4028;43.272;26.932;2023-05-01T05:26:43;99272.75;;;15.08;100.00
7966;BME280;4028;43.272;26.932;2023-05-01T05:29:08;99276.38;;;15.32;99.31
7966;BME280;4028;43.272;26.932;2023-05-01T05:31:33;99278.69;;;15.43;95.19
7966;BME280;4028;43.272;26.932;2023-05-01T05:33:59;99291.50;;;15.56;100.00
7966;BME280;4028;43.272;26.932;2023-05-01T05:36:24;99283.91;;;15.76;100.00
7966;BME280;4028;43.272;26.932;2023-05-01T05:38:51;99295.19;;;15.86;97.41
7966;BME280;4028;43.272;26.932;2023-05-01T05:41:17;99289.84;;;15.94;96.86
7966;BME280;4028;43.272;26.932;2023-05-01T05:43:42;99294.25;;;15.79;96.78
7966;BME280;4028;43.272;26.932;2023-05-01T05:46:08;99300.16;;;15.66;92.94
7966;BME280;4028;43.272;26.932;2023-05-01T05:48:33;99298.25;;;15.75;90.70
7966;BME280;4028;43.272;26.932;2023-05-01T05:50:59;99296.13;;;16.01;88.71
7966;BME280;4028;43.272;26.932;2023-05-01T05:53:24;99301.63;;;16.31;91.14
7966;BME280;4028;43.272;26.932;2023-05-01T05:55:50;99304.19;;;16.47;82.74
7966;BME280;4028;43.272;26.932;2023-05-01T05:58:16;99308.28;;;16.58;78.48
7966;BME280;4028;43.272;26.932;2023-05-01T06:00:47;99305.09;;;16.85;79.69
7966;BME280;4028;43.272;26.932;2023-05-01T06:03:12;99301.28;;;17.18;74.83
7966;BME280;4028;43.272;26.932;2023-05-01T06:05:38;99307.28;;;17.20;69.13
7966;BME280;4028;43.272;26.932;2023-05-01T06:08:04;99309.56;;;17.08;65.44
7966;BME280;4028;43.272;26.932;2023-05-01T06:10:29;99309.09;;;17.04;66.66
7966;BME280;4028;43.272;26.932;2023-05-01T06:12:55;99311.50;;;17.14;66.87
7966;BME280;4028;43.272;26.932;2023-05-01T06:15:20;99311.34;;;17.15;67.33
7966;BME280;4028;43.272;26.932;2023-05-01T06:17:46;99314.22;;;17.29;64.56
7966;BME280;4028;43.272;26.932;2023-05-01T06:20:11;99311.44;;;17.22;60.59
7966;BME280;4028;43.272;26.932;2023-05-01T06:22:38;99319.09;;;17.40;62.65
7966;BME280;4028;43.272;26.932;2023-05-01T06:25:04;99321.47;;;17.73;60.14
7966;BME280;4028;43.272;26.932;2023-05-01T06:27:31;99320.06;;;17.62;57.87
7966;BME280;4028;43.272;26.932;2023-05-01T06:29:56;99309.09;;;18.23;57.79
7966;BME280;4028;43.272;26.932;2023-05-01T06:32:22;99313.19;;;19.60;53.04
7966;BME280;4028;43.272;26.932;2023-05-01T06:34:47;99328.31;;;20.97;49.52
7966;BME280;4028;43.272;26.932;2023-05-01T06:37:13;99321.31;;;22.00;46.28
7966;BME280;4028;43.272;26.932;2023-05-01T06:39:38;99332.34;;;22.44;48.93
7966;BME280;4028;43.272;26.932;2023-05-01T06:42:04;99334.03;;;22.38;49.18
7966;BME280;4028;43.272;26.932;2023-05-01T06:44:29;99341.44;;;22.11;50.55
7966;BME280;4028;43.272;26.932;2023-05-01T06:46:55;99340.25;;;22.70;50.63
7966;BME280;4028;43.272;26.932;2023-05-01T06:49:21;99348.69;;;23.12;48.66
7966;BME280;4028;43.272;26.932;2023-05-01T06:51:47;99342.16;;;23.70;46.21
7966;BME280;4028;43.272;26.932;2023-05-01T06:54:12;99338.34;;;23.96;45.99
7966;BME280;4028;43.272;26.932;2023-05-01T06:56:38;99345.66;;;24.25;45.48
7966;BME280;4028;43.272;26.932;2023-05-01T06:59:04;99342.66;;;24.94;44.26
7966;BME280;4028;43.272;26.932;2023-05-01T07:01:30;99346.47;;;25.28;40.59
7966;BME280;4028;43.272;26.932;2023-05-01T07:03:55;99349.91;;;25.35;40.58
7966;BME280;4028;43.272;26.932;2023-05-01T07:06:21;99362.88;;;25.45;39.55
7966;BME280;4028;43.272;26.932;2023-05-01T07:08:46;99377.25;;;25.80;40.80
7966;BME280;4028;43.272;26.932;2023-05-01T07:11:12;99379.13;;;25.45;40.60
7966;BME280;4028;43.272;26.932;2023-05-01T07:13:38;99383.09;;;25.19;39.29
7966;BME280;4028;43.272;26.932;2023-05-01T07:16:04;99382.50;;;25.63;39.71
7966;BME280;4028;43.272;26.932;2023-05-01T07:18:29;99389.00;;;25.98;38.62
7966;BME280;4028;43.272;26.932;2023-05-01T07:20:55;99371.22;;;25.90;37.50
7966;BME280;4028;43.272;26.932;2023-05-01T07:23:20;99381.56;;;26.57;37.14
7966;BME280;4028;43.272;26.932;2023-05-01T07:25:47;99370.25;;;27.22;36.48
7966;BME280;4028;43.272;26.932;2023-05-01T07:28:13;99383.50;;;27.35;35.50
7966;BME280;4028;43.272;26.932;2023-05-01T07:30:39;99389.66;;;27.47;35.42
7966;BME280;4028;43.272;26.932;2023-05-01T07:33:04;99392.78;;;27.56;34.79
7966;BME280;4028;43.272;26.932;2023-05-01T07:35:30;99396.31;;;27.73;34.90
7966;BME280;4028;43.272;26.932;2023-05-01T07:37:56;99392.38;;;27.81;34.02
7966;BME280;4028;43.272;26.932;2023-05-01T07:40:22;99399.13;;;27.11;36.17
7966;BME280;4028;43.272;26.932;2023-05-01T07:42:47;99385.50;;;26.94;35.55
7966;BME280;4028;43.272;26.932;2023-05-01T07:45:13;99401.63;;;27.13;35.82
7966;BME280;4028;43.272;26.932;2023-05-01T07:47:38;99405.19;;;26.44;36.11
7966;BME280;4028;43.272;26.932;2023-05-01T07:50:04;99384.75;;;26.54;36.59
7966;BME280;4028;43.272;26.932;2023-05-01T07:52:33;99412.66;;;27.23;36.28
7966;BME280;4028;43.272;26.932;2023-05-01T07:54:59;99410.25;;;26.53;35.76
7966;BME280;4028;43.272;26.932;2023-05-01T07:57:24;99417.47;;;26.76;36.26
7966;BME280;4028;43.272;26.932;2023-05-01T07:59:53;99408.19;;;27.51;34.29
7966;BME280;4028;43.272;26.932;2023-05-01T08:02:20;99423.06;;;27.98;32.90
7966;BME280;4028;43.272;26.932;2023-05-01T08:04:46;99420.13;;;28.22;33.08
7966;BME280;4028;43.272;26.932;2023-05-01T08:07:13;99431.75;;;28.83;32.03
7966;BME280;4028;43.272;26.932;2023-05-01T08:09:38;99418.28;;;29.58;31.79
7966;BME280;4028;43.272;26.932;2023-05-01T08:12:04;99431.41;;;29.61;31.04
7966;BME280;4028;43.272;26.932;2023-05-01T08:14:30;99427.47;;;29.84;30.21
7966;BME280;4028;43.272;26.932;2023-05-01T08:16:55;99436.09;;;29.06;31.49
7966;BME280;4028;43.272;26.932;2023-05-01T08:19:21;99424.66;;;28.82;31.78
7966;BME280;4028;43.272;26.932;2023-05-01T08:21:47;99437.38;;;28.76;32.22
7966;BME280;4028;43.272;26.932;2023-05-01T08:24:12;99447.81;;;28.58;31.14
7966;BME280;4028;43.272;26.932;2023-05-01T08:26:38;99444.22;;;29.01;29.42
7966;BME280;4028;43.272;26.932;2023-05-01T08:29:03;99454.69;;;28.65;30.21
7966;BME280;4028;43.272;26.932;2023-05-01T08:31:29;99444.84;;;27.65;31.54
7966;BME280;4028;43.272;26.932;2023-05-01T08:33:54;99438.13;;;28.67;31.11
7966;BME280;4028;43.272;26.932;2023-05-01T08:36:20;99451.13;;;28.21;30.60
7966;BME280;4028;43.272;26.932;2023-05-01T08:38:46;99437.78;;;26.73;32.71
7966;BME280;4028;43.272;26.932;2023-05-01T08:41:16;99444.59;;;25.41;34.24
7966;BME280;4028;43.272;26.932;2023-05-01T08:43:45;99450.69;;;23.85;34.96
7966;BME280;4028;43.272;26.932;2023-05-01T08:46:11;99447.84;;;22.92;35.55
7966;BME280;4028;43.272;26.932;2023-05-01T08:48:39;99442.75;;;21.99;37.46
7966;BME280;4028;43.272;26.932;2023-05-01T08:51:09;99449.03;;;21.73;38.07
7966;BME280;4028;43.272;26.932;2023-05-01T08:53:35;99426.78;;;22.04;38.09
7966;BME280;4028;43.272;26.932;2023-05-01T08:56:04;99423.59;;;23.73;34.92
7966;BME280;4028;43.272;26.932;2023-05-01T08:58:32;99443.66;;;25.48;30.34
7966;BME280;4028;43.272;26.932;2023-05-01T09:01:00;99454.22;;;25.37;30.22
7966;BME280;4028;43.272;26.932;2023-05-01T09:03:27;99447.41;;;26.81;29.07
7966;BME280;4028;43.272;26.932;2023-05-01T09:05:56;99448.13;;;28.01;26.97
7966;BME280;4028;43.272;26.932;2023-05-01T09:08:22;99434.19;;;28.58;25.67
7966;BME280;4028;43.272;26.932;2023-05-01T09:10:48;99439.94;;;29.10;23.43
7966;BME280;4028;43.272;26.932;2023-05-01T09:13:15;99443.13;;;29.61;24.59
7966;BME280;4028;43.272;26.932;2023-05-01T09:15:40;99443.38;;;29.27;24.96
7966;BME280;4028;43.272;26.932;2023-05-01T09:18:07;99445.25;;;28.73;26.25
7966;BME280;4028;43.272;26.932;2023-05-01T09:20:35;99445.72;;;27.37;27.50
7966;BME280;4028;43.272;26.932;2023-05-01T09:23:01;99436.78;;;26.39;26.64
7966;BME280;4028;43.272;26.932;2023-05-01T09:25:27;99440.03;;;26.12;28.28
7966;BME280;4028;43.272;26.932;2023-05-01T09:27:53;99432.44;;;26.50;26.43
7966;BME280;4028;43.272;26.932;2023-05-01T09:30:36;99435.38;;;27.51;24.92
7966;BME280;4028;43.272;26.932;2023-05-01T09:33:09;99426.22;;;28.51;24.50
7966;BME280;4028;43.272;26.932;2023-05-01T09:35:55;99432.56;;;29.70;23.14
7966;BME280;4028;43.272;26.932;2023-05-01T09:38:25;99443.88;;;30.36;22.97
7966;BME280;4028;43.272;26.932;2023-05-01T09:41:03;99444.19;;;29.97;22.17
7966;BME280;4028;43.272;26.932;2023-05-01T09:43:29;99439.22;;;29.52;23.30
7966;BME280;4028;43.272;26.932;2023-05-01T09:46:09;99446.13;;;30.02;22.88
7966;BME280;4028;43.272;26.932;2023-05-01T09:48:35;99452.06;;;30.31;22.90
7966;BME280;4028;43.272;26.932;2023-05-01T09:51:39;99451.91;;;30.68;22.61
7966;BME280;4028;43.272;26.932;2023-05-01T09:54:04;99453.00;;;30.62;22.70
7966;BME280;4028;43.272;26.932;2023-05-01T09:56:32;99451.75;;;29.85;22.02
7966;BME280;4028;43.272;26.932;2023-05-01T09:59:14;99461.19;;;29.40;24.53
7966;BME280;4028;43.272;26.932;2023-05-01T10:01:41;99438.69;;;30.40;22.40
7966;BME280;4028;43.272;26.932;2023-05-01T10:04:07;99437.25;;;30.90;21.84
7966;BME280;4028;43.272;26.932;2023-05-01T10:06:34;99443.38;;;31.27;20.87
7966;BME280;4028;43.272;26.932;2023-05-01T10:09:01;99440.06;;;31.51;21.21
7966;BME280;4028;43.272;26.932;2023-05-01T10:11:27;99442.78;;;31.92;21.13
7966;BME280;4028;43.272;26.932;2023-05-01T10:14:06;99434.78;;;32.16;21.20
7966;BME280;4028;43.272;26.932;2023-05-01T10:16:35;99446.31;;;31.97;21.38
7966;BME280;4028;43.272;26.932;2023-05-01T10:19:01;99420.34;;;31.79;20.25
7966;BME280;4028;43.272;26.932;2023-05-01T10:21:27;99442.50;;;31.52;20.63
7966;BME280;4028;43.272;26.932;2023-05-01T10:23:54;99445.78;;;31.14;21.92
7966;BME280;4028;43.272;26.932;2023-05-01T10:26:20;99441.16;;;31.29;21.52
7966;BME280;4028;43.272;26.932;2023-05-01T10:28:47;99445.47;;;30.95;20.91
7966;BME280;4028;43.272;26.932;2023-05-01T10:31:13;99447.38;;;30.94;21.99
7966;BME280;4028;43.272;26.932;2023-05-01T10:33:39;99435.66;;;31.24;21.85
7966;BME280;4028;43.272;26.932;2023-05-01T10:36:09;99446.16;;;30.60;22.44
7966;BME280;4028;43.272;26.932;2023-05-01T10:38:37;99438.13;;;31.21;21.41
7966;BME280;4028;43.272;26.932;2023-05-01T10:41:03;99427.56;;;29.99;22.18
7966;BME280;4028;43.272;26.932;2023-05-01T10:43:30;99442.97;;;28.65;23.43
7966;BME280;4028;43.272;26.932;2023-05-01T10:51:10;99439.13;;;29.69;23.49
7966;BME280;4028;43.272;26.932;2023-05-01T10:53:45;99454.56;;;28.77;24.02
7966;BME280;4028;43.272;26.932;2023-05-01T11:01:28;99446.78;;;28.64;24.41
7966;BME280;4028;43.272;26.932;2023-05-01T11:03:55;99435.25;;;29.65;23.94
7966;BME280;4028;43.272;26.932;2023-05-01T11:06:22;99434.13;;;30.03;23.26
7966;BME280;4028;43.272;26.932;2023-05-01T11:08:48;99448.13;;;29.42;23.37
7966;BME280;4028;43.272;26.932;2023-05-01T11:14:04;99433.38;;;29.70;23.12
7966;BME280;4028;43.272;26.932;2023-05-01T11:21:40;99444.06;;;28.64;24.94
7966;BME280;4028;43.272;26.932;2023-05-01T11:24:06;99429.19;;;28.71;25.20
7966;BME280;4028;43.272;26.932;2023-05-01T11:26:36;99442.44;;;28.24;25.29
7966;BME280;4028;43.272;26.932;2023-05-01T11:29:03;99438.22;;;27.27;25.06
7966;BME280;4028;43.272;26.932;2023-05-01T11:31:29;99439.47;;;26.91;26.22
7966;BME280;4028;43.272;26.932;2023-05-01T11:33:56;99444.94;;;26.79;26.12
7966;BME280;4028;43.272;26.932;2023-05-01T11:36:22;99420.59;;;26.56;25.89
7966;BME280;4028;43.272;26.932;2023-05-01T11:38:51;99408.59;;;26.80;25.38
7966;BME280;4028;43.272;26.932;2023-05-01T11:41:21;99426.72;;;27.20;26.16
7966;BME280;4028;43.272;26.932;2023-05-01T11:44:05;99433.13;;;27.14;25.22
7966;BME280;4028;43.272;26.932;2023-05-01T11:46:31;99424.44;;;27.00;26.24
7966;BME280;4028;43.272;26.932;2023-05-01T11:48:59;99430.56;;;27.07;26.65
7966;BME280;4028;43.272;26.932;2023-05-01T11:51:26;99425.72;;;26.52;26.63
7966;BME280;4028;43.272;26.932;2023-05-01T11:56:27;99424.31;;;25.32;27.87
7966;BME280;4028;43.272;26.932;2023-05-01T11:58:55;99426.59;;;24.75;28.58
7966;BME280;4028;43.272;26.932;2023-05-01T12:01:35;99415.81;;;24.20;29.72
7966;BME280;4028;43.272;26.932;2023-05-01T12:04:05;99430.28;;;24.26;28.67
7966;BME280;4028;43.272;26.932;2023-05-01T12:06:35;99424.38;;;23.99;28.61
7966;BME280;4028;43.272;26.932;2023-05-01T12:09:05;99422.13;;;24.51;28.28
7966;BME280;4028;43.272;26.932;2023-05-01T12:11:33;99421.84;;;25.01;27.53
7966;BME280;4028;43.272;26.932;2023-05-01T12:13:59;99403.97;;;25.00;27.12
7966;BME280;4028;43.272;26.932;2023-05-01T12:16:24;99409.72;;;23.88;27.89
7966;BME280;4028;43.272;26.932;2023-05-01T12:18:50;99404.09;;;24.26;29.65
7966;BME280;4028;43.272;26.932;2023-05-01T12:21:16;99369.41;;;24.42;28.51
7966;BME280;4028;43.272;26.932;2023-05-01T12:23:44;99409.84;;;24.97;28.11
7966;BME280;4028;43.272;26.932;2023-05-01T12:26:21;99403.69;;;24.89;26.18
7966;BME280;4028;43.272;26.932;2023-05-01T12:29:00;99404.03;;;24.81;28.74
7966;BME280;4028;43.272;26.932;2023-05-01T12:31:27;99407.53;;;24.82;28.31
7966;BME280;4028;43.272;26.932;2023-05-01T12:33:57;99407.19;;;24.78;29.62
7966;BME280;4028;43.272;26.932;2023-05-01T12:36:24;99413.06;;;24.75;28.87
7966;BME280;4028;43.272;26.932;2023-05-01T12:39:12;99403.44;;;24.49;29.40
7966;BME280;4028;43.272;26.932;2023-05-01T12:41:40;99408.66;;;24.62;29.41
7966;BME280;4028;43.272;26.932;2023-05-01T12:44:25;99407.22;;;24.60;29.48
7966;BME280;4028;43.272;26.932;2023-05-01T12:46:58;99411.13;;;24.64;29.57
7966;BME280;4028;43.272;26.932;2023-05-01T12:49:25;99404.22;;;24.68;29.06
7966;BME280;4028;43.272;26.932;2023-05-01T12:51:52;99411.28;;;24.69;28.48
7966;BME280;4028;43.272;26.932;2023-05-01T12:54:27;99407.72;;;24.57;28.67
7966;BME280;4028;43.272;26.932;2023-05-01T12:56:53;99406.44;;;24.41;28.67
7966;BME280;4028;43.272;26.932;2023-05-01T12:59:28;99405.75;;;24.27;28.50
7966;BME280;4028;43.272;26.932;2023-05-01T13:02:00;99395.53;;;24.48;29.09
7966;BME280;4028;43.272;26.932;2023-05-01T13:04:27;99395.06;;;24.51;27.98
7966;BME280;4028;43.272;26.932;2023-05-01T13:06:53;99394.75;;;24.59;28.25
7966;BME280;4028;43.272;26.932;2023-05-01T13:09:22;99395.31;;;24.12;27.18
7966;BME280;4028;43.272;26.932;2023-05-01T13:11:59;99398.22;;;24.29;28.54
7966;BME280;4028;43.272;26.932;2023-05-01T13:14:31;99399.75;;;24.44;27.78
7966;BME280;4028;43.272;26.932;2023-05-01T13:16:59;99394.13;;;24.08;26.63
7966;BME280;4028;43.272;26.932;2023-05-01T13:19:27;99393.97;;;24.03;27.69
7966;BME280;4028;43.272;26.932;2023-05-01T13:21:54;99389.38;;;24.04;26.83
7966;BME280;4028;43.272;26.932;2023-05-01T13:24:20;99391.19;;;23.92;29.56
7966;BME280;4028;43.272;26.932;2023-05-01T13:26:46;99394.94;;;23.91;29.81
7966;BME280;4028;43.272;26.932;2023-05-01T13:29:14;99396.00;;;24.08;29.34
7966;BME280;4028;43.272;26.932;2023-05-01T13:31:43;99385.47;;;24.00;30.21
7966;BME280;4028;43.272;26.932;2023-05-01T13:34:09;99381.78;;;23.94;29.42
7966;BME280;4028;43.272;26.932;2023-05-01T13:36:35;99388.25;;;23.93;30.11
7966;BME280;4028;43.272;26.932;2023-05-01T13:39:01;99394.50;;;23.75;29.51
7966;BME280;4028;43.272;26.932;2023-05-01T13:41:27;99393.78;;;23.80;30.44